Skip Navigation LinksHome page > Weather > Current weather Skip Navigation Links

Current Weather

Eureka, Nunavut

For information only: do not use for flight planning or navigation.
Latest weather
Observation time Monday, May 2, 2016 10:00 PM CDT
Local time Monday, May 2, 2016 11:53 PM CDT
Flight conditions Visual Meteorological Conditions
Winds
Wind direction East-Northeast (70°)
Wind speed 3 mph
Visibility 15 mi.
Sky condition
Ceiling unlimited
Sky clear
Temperature 1°F
Dewpoint -2°F
Altimeter 30.13 in.Hg
Derived measurements
Relative humidity 84%
Wind chill -6°F
Density altitude -4254 ft.
Sea-level pressure 30.14 in.Hg
Remarks
Last observation of the day.
METAR CWEU 030300Z 07003KT 15SM SKC M17/M19 A3013 RMK LAST OBS/NEXT 030600 UTC SLP207

Settings

Location code

InnerDrive.Weather 4.0.5722.1 Release CLR 4.0.30319.34209
Copyright ©2015 Inner Drive Technology. All rights reserved. Portions Copyright ©1986-2015 David Braverman.

Find weather

Site navigation


Skip Navigation Links

Place info

Page info

PayPal - The safer, easier way to pay online!

Return home.

Copyright ©2016 Inner Drive Technology. Purveyors of fine, hand-crafted computer software. Page printed 2016-05-03T04:53:29 UTC.